Angaur Airstrip Airport

KANG · Angaur, 帕劳

METAR KANG · Angaur Airstrip Airport

30 五月 04:50 LT
47m
使用的METAR站距离机场68 km。
罗盘
风向 的 风向 010° Angaur Airstrip Airport 5/23
风: 4 kt, 2 beaufort

3 kt

2 kt
改变
0 ft 6.000 12.000 18.000 24.000 30.000
Cloud Cloud Cloud Cloud
SCT 1.600
Cloud Cloud Cloud Cloud Cloud Cloud
BKN 29.000
METAR PTRO 291950Z 01004KT 15SM SCT016 BKN290 26/25 A2983

METAR Angaur Airstrip Airport - KANG

Angaur Airstrip Airport是,帕劳中的小机场。 该机场位于纬度6,90625和经度134,14487。 该机场有一条跑道: 5/23. 本场的ICAO机场代码为KANG。 该机场的本地机场标识(FAA LID)为ANG。 机场在Oakland Oceanic West FIR中。

该航空气象观测是针对Palau International Airport在2024年5月30日 04:50, 当地时间进行的。

机场观察

风向为010°,速度为4 kt。

可见度为24 km。

有疏云,零星散落的云朵在1.600 ft的高度 和 碎云在29.000 ft的高度。 破损或更高的上限为29.000 ft。

温度和风寒是26 °C。 露点为25 °C,相对湿度为94%。 海平面上的气压为1010 hPa (QNH)。

白天

今天,太阳从05:46升起,在18:15降落。 这适用于Angaur Airstrip Airport,世界夏令时可能有所不同。 当地时间与世界标准时间之间的时差为+9 小时。 夏令时目前正在进行中。

公司介绍

我们没有关于这个机场的公司信息。

体会

到Vliegles.nl去找飞行课程,跳伞和其他飞行体验。 浏览页面,了解Angaur Airstrip Airport附近所有可用的活动。 你也可以使用搜索功能来寻找你所在地附近的特定飞行课程、跳伞或其他飞行体验。

跑道

Id 标题 侧风 逆风 侧风 %
5/23 045°-225° 2 kt 3 kt 57 %

逆风成分最大的方向会被突出显示,并用于横风计算。 这并不一定意味着这个方向在使用。

乌云

1.600 ft SCT 疏云,零星散落的云朵
29.000 ft BKN 碎云

温度 & 天气

温度 26 °C
露点 25 °C
相对湿度 94%
Kp-index 1 (0-9)

白天

日出
05:43 (6m)
中午
11:59
日落
18:14

小工具

你想在你的网站上有一个关于Angaur Airstrip Airport的当前航空天气(METAR)的小部件吗?

显示HTML代码
报告变更